createdAt,value
2023-01-22T00:01:15.933Z,7.20
2023-01-22T00:03:46.199Z,6.37
2023-01-22T00:06:14.934Z,6.33
2023-01-22T00:08:42.426Z,8.50
2023-01-22T00:11:10.393Z,8.30
2023-01-22T00:13:37.312Z,8.17
2023-01-22T00:16:04.628Z,6.27
2023-01-22T00:18:31.655Z,7.83
2023-01-22T00:20:58.829Z,6.90
2023-01-22T00:23:25.937Z,7.50
2023-01-22T00:26:14.010Z,7.30
2023-01-22T00:28:42.498Z,8.13
2023-01-22T00:31:11.161Z,7.17
2023-01-22T00:33:39.183Z,8.20
2023-01-22T00:36:20.930Z,6.60
2023-01-22T00:38:49.887Z,6.10
2023-01-22T00:41:18.616Z,6.57
2023-01-22T00:43:45.813Z,6.50
2023-01-22T00:46:15.041Z,5.40
2023-01-22T00:48:42.789Z,5.00
2023-01-22T00:51:15.695Z,5.20
2023-01-22T00:53:43.893Z,5.00
2023-01-22T00:56:12.903Z,4.87
2023-01-22T00:58:40.032Z,4.63
2023-01-22T01:01:08.088Z,3.97
2023-01-22T01:03:37.665Z,4.43
2023-01-22T01:06:16.968Z,4.03
2023-01-22T01:08:46.485Z,3.53
2023-01-22T01:11:21.480Z,3.57
2023-01-22T01:13:49.334Z,5.37
2023-01-22T01:16:23.829Z,4.50
2023-01-22T01:18:51.174Z,3.87
2023-01-22T01:21:19.304Z,3.50
2023-01-22T01:23:46.576Z,3.50
2023-01-22T01:26:15.549Z,3.17
2023-01-22T01:28:43.704Z,4.87
2023-01-22T01:31:14.082Z,3.97
2023-01-22T01:33:42.279Z,5.00
2023-01-22T01:36:15.056Z,4.77
2023-01-22T01:38:42.453Z,6.17
2023-01-22T01:41:13.767Z,6.23
2023-01-22T01:43:41.108Z,5.77
2023-01-22T01:46:24.455Z,4.83
2023-01-22T01:48:54.722Z,4.73
2023-01-22T01:51:35.170Z,4.80
2023-01-22T01:54:04.250Z,5.77
2023-01-22T01:56:41.475Z,5.37
2023-01-22T01:59:12.737Z,5.23
2023-01-22T02:01:40.350Z,5.50
2023-01-22T02:04:07.833Z,7.10
2023-01-22T02:06:34.806Z,6.33
2023-01-22T02:09:02.812Z,6.63
2023-01-22T02:11:30.577Z,5.07
2023-01-22T02:14:02.563Z,5.40
2023-01-22T02:16:29.649Z,5.38
2023-01-22T02:18:56.703Z,5.07
2023-01-22T02:21:35.591Z,5.20
2023-01-22T02:24:05.144Z,5.53
2023-01-22T02:26:33.227Z,5.67
2023-01-22T02:29:00.273Z,6.53
2023-01-22T02:31:30.250Z,5.70
2023-01-22T02:33:58.763Z,6.23
2023-01-22T02:36:29.746Z,6.43
2023-01-22T02:38:56.966Z,6.57
2023-01-22T02:41:28.188Z,7.03
2023-01-22T02:43:55.543Z,4.93
2023-01-22T02:46:25.993Z,6.73
2023-01-22T02:48:56.198Z,7.23
2023-01-22T02:51:24.120Z,6.60
2023-01-22T02:53:51.167Z,7.47
2023-01-22T02:56:19.165Z,7.20
2023-01-22T02:58:46.113Z,6.57
2023-01-22T03:01:24.826Z,8.10
2023-01-22T03:04:12.632Z,7.73
2023-01-22T03:06:43.504Z,7.50
2023-01-22T03:09:13.177Z,7.30
2023-01-22T03:11:42.279Z,6.90
2023-01-22T03:17:18.085Z,7.50
2023-01-22T03:20:03.533Z,6.77
2023-01-22T03:22:31.639Z,7.13
2023-01-22T03:25:00.480Z,6.20
2023-01-22T03:27:30.098Z,8.03
2023-01-22T03:29:58.757Z,7.77
2023-01-22T03:32:26.291Z,6.80
2023-01-22T03:34:53.908Z,9.47
2023-01-22T03:37:22.837Z,9.30
2023-01-22T03:39:53.038Z,7.93
2023-01-22T03:42:32.377Z,9.00
2023-01-22T03:44:59.463Z,9.47
2023-01-22T03:47:27.084Z,8.40
2023-01-22T03:49:57.255Z,7.73
2023-01-22T03:52:24.850Z,7.80
2023-01-22T03:54:51.822Z,8.43
2023-01-22T03:57:18.777Z,9.57
2023-01-22T03:59:46.011Z,7.47
2023-01-22T04:02:13.016Z,8.40
2023-01-22T04:04:52.797Z,8.33
2023-01-22T04:07:20.076Z,8.47
2023-01-22T04:09:48.440Z,7.43
2023-01-22T04:12:15.372Z,8.20
2023-01-22T04:14:43.345Z,8.37
2023-01-22T04:17:10.655Z,7.37
2023-01-22T04:19:49.683Z,7.00
2023-01-22T04:22:35.450Z,6.97
2023-01-22T04:25:03.768Z,6.40
2023-01-22T04:27:31.665Z,6.47
2023-01-22T04:29:58.711Z,6.77
2023-01-22T04:32:25.715Z,6.83
2023-01-22T04:35:06.088Z,7.67
2023-01-22T04:37:37.381Z,7.60
2023-01-22T04:40:08.392Z,7.60
2023-01-22T04:42:37.324Z,7.33
2023-01-22T04:45:05.216Z,7.20
2023-01-22T04:47:33.083Z,5.43
2023-01-22T04:50:00.172Z,7.57
2023-01-22T04:52:27.248Z,6.33
2023-01-22T04:54:54.922Z,6.53
2023-01-22T04:57:24.182Z,6.43
2023-01-22T04:59:51.318Z,6.50
2023-01-22T05:02:18.382Z,6.50
2023-01-22T05:04:45.487Z,6.60
2023-01-22T05:07:13.669Z,8.70
2023-01-22T05:09:40.625Z,6.90
2023-01-22T05:12:07.803Z,7.93
2023-01-22T05:14:40.712Z,6.77
2023-01-22T05:17:08.142Z,6.50
2023-01-22T05:19:35.692Z,6.93
2023-01-22T05:22:06.295Z,8.20
2023-01-22T05:24:33.753Z,7.23
2023-01-22T05:27:01.245Z,7.43
2023-01-22T05:29:34.701Z,7.97
2023-01-22T05:32:24.513Z,7.93
2023-01-22T05:34:55.336Z,7.67
2023-01-22T05:37:23.423Z,6.70
2023-01-22T05:39:51.764Z,5.70
2023-01-22T05:42:18.797Z,7.13
2023-01-22T05:44:48.553Z,6.03
2023-01-22T05:47:17.600Z,6.63
2023-01-22T05:50:02.697Z,7.80
2023-01-22T05:52:29.620Z,7.10
2023-01-22T05:54:56.932Z,6.93
2023-01-22T05:57:27.944Z,6.30
2023-01-22T05:59:55.065Z,6.47
2023-01-22T06:02:23.338Z,7.57
2023-01-22T06:04:52.754Z,7.03
2023-01-22T06:07:25.700Z,8.40
2023-01-22T06:09:53.037Z,8.47
2023-01-22T06:12:20.033Z,6.87
2023-01-22T06:14:47.580Z,7.07
2023-01-22T06:17:14.764Z,8.20
2023-01-22T06:19:48.295Z,6.50
2023-01-22T06:22:19.231Z,6.40
2023-01-22T06:24:57.911Z,5.67
2023-01-22T06:27:32.011Z,6.13
2023-01-22T06:30:01.059Z,6.20
2023-01-22T06:32:28.154Z,6.77
2023-01-22T06:34:55.147Z,6.67
2023-01-22T06:37:23.128Z,5.97
2023-01-22T06:39:51.936Z,6.10
2023-01-22T06:42:41.889Z,5.10
2023-01-22T06:45:09.137Z,5.03
2023-01-22T06:47:37.910Z,4.60
2023-01-22T06:50:05.333Z,5.03
2023-01-22T06:52:32.316Z,4.27
2023-01-22T06:54:59.288Z,5.20
2023-01-22T06:57:29.903Z,6.10
2023-01-22T06:59:57.550Z,5.83
2023-01-22T07:02:24.474Z,4.73
2023-01-22T07:04:51.631Z,5.03
2023-01-22T07:07:18.565Z,4.47
2023-01-22T07:09:45.585Z,4.63
2023-01-22T07:12:12.572Z,4.83
2023-01-22T07:14:39.494Z,4.13
2023-01-22T07:17:06.473Z,3.87
2023-01-22T07:19:33.354Z,3.90
2023-01-22T07:22:00.357Z,3.87
2023-01-22T07:24:27.363Z,2.90
2023-01-22T07:26:55.520Z,3.23
2023-01-22T07:29:24.915Z,3.57
2023-01-22T07:31:51.905Z,3.37
2023-01-22T07:34:18.916Z,4.07
2023-01-22T07:36:49.047Z,3.90
2023-01-22T07:39:16.059Z,3.70
2023-01-22T07:41:43.155Z,5.10
2023-01-22T07:44:13.273Z,4.60
2023-01-22T07:46:40.341Z,4.53
2023-01-22T07:49:07.531Z,4.30
2023-01-22T07:51:34.848Z,4.30
2023-01-22T07:54:01.901Z,3.87
2023-01-22T07:56:28.935Z,4.03
2023-01-22T07:58:56.035Z,3.77
2023-01-22T08:01:23.081Z,4.47
2023-01-22T08:03:50.011Z,4.47
2023-01-22T08:06:20.740Z,5.37
2023-01-22T08:08:48.018Z,6.00
2023-01-22T08:11:15.258Z,5.17
2023-01-22T08:13:42.393Z,5.17
2023-01-22T08:16:09.741Z,4.93
2023-01-22T08:18:37.625Z,5.20
2023-01-22T08:21:04.924Z,6.03
2023-01-22T08:23:32.142Z,6.20
2023-01-22T08:26:04.141Z,5.37
2023-01-22T08:28:32.140Z,5.43
2023-01-22T08:31:03.596Z,5.33
2023-01-22T08:33:33.915Z,6.43
2023-01-22T08:36:00.921Z,5.40
2023-01-22T08:38:27.923Z,6.10
2023-01-22T08:40:54.872Z,5.73
2023-01-22T08:43:21.811Z,5.33
2023-01-22T08:45:49.973Z,4.97
2023-01-22T08:48:17.756Z,5.13
2023-01-22T08:50:45.057Z,5.43
2023-01-22T08:53:12.128Z,5.43
2023-01-22T08:55:39.145Z,4.87
2023-01-22T08:58:06.749Z,4.70
2023-01-22T09:00:33.826Z,4.27
2023-01-22T09:03:00.902Z,4.63
2023-01-22T09:05:28.371Z,5.13
2023-01-22T09:07:55.566Z,4.30
2023-01-22T09:10:25.366Z,5.80
2023-01-22T09:12:55.113Z,4.47
2023-01-22T09:15:23.456Z,4.63
2023-01-22T09:17:50.685Z,4.20
2023-01-22T09:20:17.945Z,4.90
2023-01-22T09:22:46.029Z,4.70
2023-01-22T09:25:13.485Z,4.57
2023-01-22T09:27:40.608Z,3.53
2023-01-22T09:30:09.827Z,4.03
2023-01-22T09:32:39.143Z,4.45
2023-01-22T09:35:06.735Z,6.20
2023-01-22T09:37:33.929Z,4.90
2023-01-22T09:40:00.950Z,4.20
2023-01-22T09:42:35.179Z,4.77
2023-01-22T09:45:07.402Z,4.47
2023-01-22T09:47:42.610Z,4.57
2023-01-22T09:50:15.312Z,4.80
2023-01-22T09:52:42.493Z,4.33
2023-01-22T09:55:18.308Z,3.87
2023-01-22T09:57:47.308Z,5.20
2023-01-22T10:00:19.310Z,5.07
2023-01-22T10:03:07.363Z,4.90
2023-01-22T10:05:48.582Z,3.87
2023-01-22T10:08:22.994Z,4.40
2023-01-22T10:10:54.792Z,3.87
2023-01-22T10:13:25.523Z,3.88
2023-01-22T10:15:56.690Z,4.50
2023-01-22T10:18:48.710Z,4.93
2023-01-22T10:21:56.109Z,4.32
2023-01-22T10:24:23.131Z,5.73
2023-01-22T10:26:54.551Z,5.13
2023-01-22T10:29:21.557Z,5.22
2023-01-22T10:31:53.839Z,4.13
2023-01-22T10:37:16.245Z,4.73
2023-01-22T10:39:45.418Z,4.78
2023-01-22T10:42:24.551Z,5.17
2023-01-22T10:45:09.397Z,3.97
2023-01-22T10:47:36.512Z,4.40
2023-01-22T10:50:07.523Z,4.67
2023-01-22T10:52:39.921Z,4.23
2023-01-22T10:57:37.919Z,4.90
2023-01-22T11:00:13.811Z,5.07
2023-01-22T11:02:47.082Z,4.87
2023-01-22T11:05:47.967Z,5.17
2023-01-22T11:08:18.797Z,4.20
2023-01-22T11:10:48.294Z,4.83
2023-01-22T11:13:37.092Z,5.30
2023-01-22T11:16:13.552Z,4.60
2023-01-22T11:18:49.389Z,4.80
2023-01-22T11:21:24.197Z,4.80
2023-01-22T11:24:03.334Z,4.97
2023-01-22T11:26:39.134Z,4.88
2023-01-22T11:29:30.469Z,4.47
2023-01-22T11:32:24.105Z,4.82
2023-01-22T11:35:22.798Z,5.13
2023-01-22T11:38:04.948Z,4.30
2023-01-22T11:40:39.775Z,4.93
2023-01-22T11:43:25.967Z,4.53
2023-01-22T11:46:17.212Z,5.43
2023-01-22T11:49:05.925Z,5.00
2023-01-22T11:51:40.320Z,4.93
2023-01-22T11:54:22.832Z,5.93
2023-01-22T11:56:55.391Z,5.28
2023-01-22T11:59:29.159Z,5.43
2023-01-22T12:02:36.432Z,6.53
2023-01-22T12:05:37.161Z,5.70
2023-01-22T12:08:48.504Z,5.57
2023-01-22T12:11:35.792Z,5.93
2023-01-22T12:14:10.700Z,5.07
2023-01-22T12:17:02.200Z,5.83
2023-01-22T12:19:51.740Z,5.10
2023-01-22T12:23:04.484Z,4.37
2023-01-22T12:25:41.749Z,5.50
2023-01-22T12:28:14.352Z,5.07
2023-01-22T12:30:53.990Z,4.97
2023-01-22T12:33:26.536Z,5.67
2023-01-22T12:35:57.575Z,4.88
2023-01-22T12:38:27.731Z,5.30
2023-01-22T12:41:33.867Z,6.70
2023-01-22T12:44:25.179Z,6.30
2023-01-22T12:47:17.853Z,5.03
2023-01-22T12:49:47.465Z,5.03
2023-01-22T12:52:32.017Z,6.07
2023-01-22T12:54:59.690Z,5.18
2023-01-22T12:57:40.419Z,5.40
2023-01-22T13:00:30.424Z,4.75
2023-01-22T13:02:58.340Z,5.18
2023-01-22T13:05:31.642Z,3.90
2023-01-22T13:08:05.523Z,5.72
2023-01-22T13:10:35.681Z,4.55
2023-01-22T13:13:23.347Z,4.13
2023-01-22T13:16:04.237Z,3.58
2023-01-22T13:18:35.827Z,3.38
2023-01-22T13:21:14.622Z,3.03
2023-01-22T13:23:44.893Z,4.03
2023-01-22T13:26:33.338Z,3.87
2023-01-22T13:29:17.611Z,3.92
2023-01-22T13:32:02.266Z,4.00
2023-01-22T13:34:29.649Z,3.75
2023-01-22T13:36:56.973Z,3.95
2023-01-22T13:39:34.409Z,4.30
2023-01-22T13:42:05.139Z,5.45
2023-01-22T13:44:36.168Z,5.25
2023-01-22T13:47:03.957Z,4.68
2023-01-22T13:49:33.203Z,3.88
2023-01-22T13:52:07.131Z,3.40
2023-01-22T13:54:43.437Z,3.90
2023-01-22T13:57:19.929Z,3.28
2023-01-22T13:59:58.797Z,3.78
2023-01-22T14:02:33.203Z,4.53
2023-01-22T14:05:02.086Z,4.03
2023-01-22T14:07:31.579Z,3.10
2023-01-22T14:10:14.550Z,3.67
2023-01-22T14:12:41.711Z,5.60
2023-01-22T14:15:20.987Z,4.38
2023-01-22T14:17:49.823Z,3.95
2023-01-22T14:20:17.977Z,3.92
2023-01-22T14:22:45.393Z,3.63
2023-01-22T14:25:12.621Z,3.17
2023-01-22T14:27:48.500Z,3.90
2023-01-22T14:30:18.345Z,3.47
2023-01-22T14:32:46.177Z,4.40
2023-01-22T14:35:26.506Z,6.53
2023-01-22T14:37:56.980Z,4.57
2023-01-22T14:40:25.853Z,4.53
2023-01-22T14:42:53.373Z,5.17
2023-01-22T14:45:21.091Z,5.00
2023-01-22T14:47:53.808Z,4.68
2023-01-22T14:50:22.128Z,5.60
2023-01-22T14:52:51.433Z,4.70
2023-01-22T14:55:19.385Z,4.85
2023-01-22T14:57:46.552Z,5.25
2023-01-22T15:00:16.123Z,5.60
2023-01-22T15:02:43.312Z,6.72
2023-01-22T15:05:11.057Z,6.30
2023-01-22T15:07:38.938Z,6.07
2023-01-22T15:10:10.968Z,6.05
2023-01-22T15:12:41.387Z,5.07
2023-01-22T15:15:09.019Z,5.10
2023-01-22T15:17:36.403Z,6.57
2023-01-22T15:20:04.769Z,4.30
2023-01-22T15:22:34.852Z,5.35
2023-01-22T15:25:02.027Z,4.60
2023-01-22T15:27:29.053Z,6.60
2023-01-22T15:29:56.225Z,4.90
2023-01-22T15:32:23.138Z,4.63
2023-01-22T15:34:50.183Z,4.68
2023-01-22T15:37:17.314Z,4.93
2023-01-22T15:39:44.413Z,4.25
2023-01-22T15:42:11.364Z,4.15
2023-01-22T15:44:38.711Z,3.50
2023-01-22T15:47:06.387Z,4.83
2023-01-22T15:49:34.074Z,3.95
2023-01-22T15:52:01.430Z,4.50
2023-01-22T15:54:28.523Z,3.67
2023-01-22T15:56:58.116Z,3.88
2023-01-22T15:59:25.244Z,3.60
2023-01-22T16:01:53.959Z,3.58
2023-01-22T16:04:21.242Z,3.33
2023-01-22T16:06:48.314Z,3.95
2023-01-22T16:09:15.278Z,3.42
2023-01-22T16:11:45.750Z,3.40
2023-01-22T16:14:15.274Z,3.63
2023-01-22T16:16:42.356Z,3.05
2023-01-22T16:19:13.402Z,3.35
2023-01-22T16:21:40.400Z,3.38
2023-01-22T16:24:07.987Z,3.38
2023-01-22T16:26:35.664Z,3.50
2023-01-22T16:29:06.331Z,3.63
2023-01-22T16:31:35.375Z,3.53
2023-01-22T16:34:12.291Z,2.88
2023-01-22T16:36:40.114Z,4.87
2023-01-22T16:39:07.875Z,4.25
2023-01-22T16:41:36.431Z,5.70
2023-01-22T16:44:12.302Z,5.27
2023-01-22T16:46:42.043Z,5.85
2023-01-22T16:49:23.863Z,6.80
2023-01-22T16:51:54.621Z,6.18
2023-01-22T16:54:36.280Z,5.83
2023-01-22T16:57:05.800Z,6.27
2023-01-22T16:59:37.123Z,6.00
2023-01-22T17:02:08.306Z,7.87
2023-01-22T17:04:35.335Z,6.63
2023-01-22T17:07:06.130Z,6.23
2023-01-22T17:09:36.078Z,5.47
2023-01-22T17:12:05.342Z,5.10
2023-01-22T17:14:35.942Z,5.77
2023-01-22T17:17:04.249Z,6.28
2023-01-22T17:19:31.455Z,6.05
2023-01-22T17:21:59.328Z,6.55
2023-01-22T17:24:27.959Z,5.10
2023-01-22T17:26:55.623Z,5.67
2023-01-22T17:29:23.934Z,6.03
2023-01-22T17:31:51.224Z,5.00
2023-01-22T17:34:18.429Z,4.68
2023-01-22T17:36:45.389Z,6.18
2023-01-22T17:39:17.149Z,5.43
2023-01-22T17:41:44.873Z,6.13
2023-01-22T17:44:12.399Z,6.18
2023-01-22T17:46:39.666Z,5.97
2023-01-22T17:49:06.916Z,5.47
2023-01-22T17:51:34.940Z,6.68
2023-01-22T17:54:03.629Z,5.97
2023-01-22T17:56:36.548Z,6.13
2023-01-22T17:59:06.144Z,5.45
2023-01-22T18:01:35.163Z,4.47
2023-01-22T18:04:05.568Z,6.32
2023-01-22T18:06:33.300Z,6.70
2023-01-22T18:09:00.849Z,6.93
2023-01-22T18:11:30.155Z,7.85
2023-01-22T18:13:59.048Z,7.40
2023-01-22T18:16:28.167Z,8.05
2023-01-22T18:18:56.989Z,7.28
2023-01-22T18:21:27.154Z,6.95
2023-01-22T18:23:59.121Z,5.70
2023-01-22T18:26:26.667Z,6.03
2023-01-22T18:28:56.863Z,6.78
2023-01-22T18:31:29.264Z,8.10
2023-01-22T18:36:26.988Z,6.70
2023-01-22T18:39:00.205Z,6.25
2023-01-22T18:41:27.753Z,6.82
2023-01-22T18:43:56.967Z,7.03
2023-01-22T18:46:29.805Z,6.30
2023-01-22T18:48:59.426Z,6.17
2023-01-22T18:51:28.265Z,6.07
2023-01-22T18:53:57.238Z,6.07
2023-01-22T18:56:27.636Z,5.82
2023-01-22T18:58:58.841Z,5.30
2023-01-22T19:01:33.858Z,5.13
2023-01-22T19:04:03.502Z,5.40
2023-01-22T19:06:37.092Z,5.20
2023-01-22T19:09:06.073Z,5.83
2023-01-22T19:11:40.700Z,5.25
2023-01-22T19:14:09.296Z,5.63
2023-01-22T19:16:37.579Z,4.20
2023-01-22T19:19:13.227Z,4.68
2023-01-22T19:21:46.744Z,4.30
2023-01-22T19:24:16.454Z,5.32
2023-01-22T19:26:46.139Z,4.30
2023-01-22T19:29:18.067Z,5.07
2023-01-22T19:31:47.520Z,4.03
2023-01-22T19:34:23.415Z,5.07
2023-01-22T19:37:05.764Z,5.88
2023-01-22T19:39:34.088Z,4.68
2023-01-22T19:42:03.100Z,5.43
2023-01-22T19:44:31.740Z,5.40
2023-01-22T19:47:00.273Z,4.40
2023-01-22T19:49:27.433Z,3.73
2023-01-22T19:51:54.634Z,4.40
2023-01-22T19:54:24.706Z,5.13
2023-01-22T19:56:52.863Z,5.38
2023-01-22T19:59:22.607Z,5.90
2023-01-22T20:01:50.484Z,6.03
2023-01-22T20:04:26.790Z,5.47
2023-01-22T20:07:02.233Z,5.05
2023-01-22T20:09:30.300Z,4.68
2023-01-22T20:11:58.280Z,4.50
2023-01-22T20:14:29.857Z,5.78
2023-01-22T20:17:02.799Z,5.20
2023-01-22T20:19:30.518Z,4.47
2023-01-22T20:21:57.996Z,4.50
2023-01-22T20:24:24.957Z,5.35
2023-01-22T20:26:55.685Z,4.55
2023-01-22T20:29:22.960Z,4.28
2023-01-22T20:31:57.082Z,4.80
2023-01-22T20:34:27.487Z,4.22
2023-01-22T20:36:57.207Z,4.88
2023-01-22T20:39:27.289Z,4.50
2023-01-22T20:41:55.219Z,3.47
2023-01-22T20:44:22.992Z,3.85
2023-01-22T20:46:50.900Z,3.95
2023-01-22T20:49:21.802Z,3.60
2023-01-22T20:51:48.802Z,4.10
2023-01-22T20:54:15.835Z,4.13
2023-01-22T20:56:42.820Z,5.18
2023-01-22T20:59:17.375Z,4.90
2023-01-22T21:01:44.724Z,4.75
2023-01-22T21:04:13.230Z,4.23
2023-01-22T21:06:40.838Z,4.03
2023-01-22T21:09:09.210Z,4.47
2023-01-22T21:11:39.027Z,4.75
2023-01-22T21:14:07.912Z,4.30
2023-01-22T21:16:37.678Z,4.97
2023-01-22T21:19:12.700Z,4.03
2023-01-22T21:21:39.762Z,3.72
2023-01-22T21:24:07.107Z,4.50
2023-01-22T21:26:34.265Z,4.70
2023-01-22T21:29:11.488Z,3.75
2023-01-22T21:31:38.802Z,4.50
2023-01-22T21:34:08.800Z,4.80
2023-01-22T21:36:39.202Z,4.00
2023-01-22T21:39:09.159Z,4.63
2023-01-22T21:41:37.414Z,6.67
2023-01-22T21:44:26.456Z,5.53
2023-01-22T21:46:56.682Z,4.93
2023-01-22T21:49:26.772Z,5.30
2023-01-22T21:52:00.339Z,5.25
2023-01-22T21:54:28.928Z,4.68
2023-01-22T21:56:57.106Z,5.18
2023-01-22T21:59:27.377Z,7.30
2023-01-22T22:01:54.776Z,6.77
2023-01-22T22:04:23.899Z,7.50
2023-01-22T22:06:51.429Z,6.75
2023-01-22T22:09:22.051Z,6.40
2023-01-22T22:11:55.980Z,6.07
2023-01-22T22:14:24.397Z,5.97
2023-01-22T22:16:51.508Z,6.35
2023-01-22T22:19:19.239Z,5.15
2023-01-22T22:21:46.556Z,6.37
2023-01-22T22:24:14.240Z,5.13
2023-01-22T22:26:41.177Z,5.38
2023-01-22T22:29:09.463Z,6.73
2023-01-22T22:31:37.663Z,5.72
2023-01-22T22:34:05.026Z,6.00
2023-01-22T22:36:33.205Z,5.90
2023-01-22T22:39:01.417Z,6.82
2023-01-22T22:41:30.952Z,5.78
2023-01-22T22:43:58.917Z,5.60
2023-01-22T22:46:29.258Z,4.70
2023-01-22T22:48:57.980Z,5.22
2023-01-22T22:51:31.191Z,4.90
2023-01-22T22:54:02.352Z,5.60
2023-01-22T22:56:29.965Z,4.10
2023-01-22T22:58:58.220Z,4.10
2023-01-22T23:01:26.055Z,4.50
2023-01-22T23:03:56.637Z,4.28
2023-01-22T23:06:27.731Z,3.47
2023-01-22T23:09:09.475Z,4.35
2023-01-22T23:11:36.586Z,3.83
2023-01-22T23:14:04.373Z,4.38
2023-01-22T23:16:34.918Z,3.85
2023-01-22T23:19:04.909Z,4.05
2023-01-22T23:21:35.192Z,4.63
2023-01-22T23:24:03.289Z,4.95
2023-01-22T23:26:31.101Z,5.03
2023-01-22T23:29:02.120Z,4.60
2023-01-22T23:31:34.492Z,5.28
2023-01-22T23:36:35.029Z,7.15
2023-01-22T23:39:04.025Z,6.10
2023-01-22T23:41:31.041Z,6.45
2023-01-22T23:43:58.039Z,6.65
2023-01-22T23:46:27.904Z,5.95
2023-01-22T23:48:56.343Z,6.28
2023-01-22T23:51:25.842Z,5.18
2023-01-22T23:53:53.772Z,6.15
2023-01-22T23:56:33.421Z,5.47
2023-01-22T23:59:00.615Z,6.75
